Time;durP1;ratioP1;P1;durP2;ratioP2;P2;SDS_P1;SDS_P2;PMS_P1;PMS_P2;Temp;Humidity;BMP_temperature;BMP_pressure;BME280_temperature;BME280_humidity;BME280_pressure;Samples;Min_cycle;Max_cycle;Signal;HPM_P1;HPM_P2
2021/10/31 00:00:44;;;;;;;27.60;16.80;;;;;;;9.64;55.17;100062.57;114608;1194;138045;-68
2021/10/31 00:03:32;;;;;;;29.40;16.70;;;;;;;9.62;55.13;100069.77;114757;1193;95893;-68
2021/10/31 00:06:20;;;;;;;26.60;16.40;;;;;;;9.60;55.33;100066.54;114751;1194;112304;-68
2021/10/31 00:09:07;;;;;;;28.60;16.90;;;;;;;9.57;55.42;100066.99;114648;1193;139167;-69
2021/10/31 00:11:54;;;;;;;27.30;16.70;;;;;;;9.53;55.49;100073.87;113944;1193;107387;-68
2021/10/31 00:14:41;;;;;;;26.70;16.80;;;;;;;9.50;55.59;100077.05;113274;1193;137963;-68
2021/10/31 00:17:28;;;;;;;27.00;17.30;;;;;;;9.47;55.64;100074.55;113397;1194;97625;-68
2021/10/31 00:20:15;;;;;;;27.90;17.60;;;;;;;9.44;55.76;100076.75;113218;1194;137760;-68
2021/10/31 00:23:02;;;;;;;25.90;17.80;;;;;;;9.40;55.86;100082.95;113274;1196;109067;-68
2021/10/31 00:25:49;;;;;;;27.40;17.20;;;;;;;9.35;56.01;100083.61;114609;1193;138926;-67
2021/10/31 00:28:36;;;;;;;28.20;17.50;;;;;;;9.32;56.08;100077.79;114759;1193;95860;-67
2021/10/31 00:31:22;;;;;;;26.90;16.20;;;;;;;9.29;56.12;100087.08;114644;1193;138771;-67
2021/10/31 00:34:09;;;;;;;28.90;17.40;;;;;;;9.26;56.34;100088.89;114686;1195;112515;-67
2021/10/31 00:36:57;;;;;;;28.60;17.50;;;;;;;9.25;56.34;100088.58;114521;1194;138149;-67
2021/10/31 00:39:43;;;;;;;;;;;;;;;9.23;56.35;100090.55;114756;1193;108786;-68
2021/10/31 00:42:30;;;;;;;27.10;17.50;;;;;;;9.20;56.56;100093.77;114759;1193;95533;-67
2021/10/31 00:45:17;;;;;;;30.90;17.00;;;;;;;9.18;56.64;100086.38;114657;1193;138688;-67
2021/10/31 00:48:04;;;;;;;29.20;17.80;;;;;;;9.15;56.74;100090.95;114742;1193;111546;-67
2021/10/31 00:50:51;;;;;;;26.10;17.20;;;;;;;9.11;56.88;100090.54;113243;1193;137587;-69
2021/10/31 00:53:39;;;;;;;;;;;;;;;9.07;56.92;100104.38;114790;1193;108733;-67
2021/10/31 00:56:26;;;;;;;27.50;17.50;;;;;;;9.02;56.92;100106.43;114163;1193;124983;-69
2021/10/31 00:59:13;;;;;;;;;;;;;;;8.95;57.35;100101.21;114733;1193;95572;-67
2021/10/31 01:02:05;;;;;;;30.30;17.90;;;;;;;8.88;57.48;100099.52;114584;1193;123455;-67
2021/10/31 01:04:59;;;;;;;26.20;16.00;;;;;;;8.83;57.70;100095.00;114631;1195;108627;-68
2021/10/31 01:08:43;;;;;;;27.50;18.00;;;;;;;8.79;57.72;100092.48;113556;1194;137782;-67
2021/10/31 01:11:55;;;;;;;28.50;17.80;;;;;;;8.74;57.73;100082.73;114362;1196;95976;-67
2021/10/31 01:14:46;;;;;;;29.50;18.30;;;;;;;8.70;57.88;100088.77;113415;1196;138516;-68
2021/10/31 01:17:50;;;;;;;27.00;17.70;;;;;;;8.66;58.12;100093.20;114359;1196;111164;-68
2021/10/31 01:20:55;;;;;;;28.20;17.90;;;;;;;8.62;58.04;100085.17;113124;1196;138849;-68
2021/10/31 01:24:12;;;;;;;28.80;17.60;;;;;;;8.58;58.26;100083.52;112736;1196;108446;-68
2021/10/31 01:27:08;;;;;;;26.50;17.30;;;;;;;8.54;58.44;100082.42;113847;1196;138206;-66
2021/10/31 01:30:25;;;;;;;26.70;17.10;;;;;;;8.54;58.52;100086.77;114222;1196;96034;-67
2021/10/31 01:33:23;;;;;;;28.60;17.00;;;;;;;8.53;58.75;100098.21;114097;1196;137890;-67
2021/10/31 01:36:42;;;;;;;29.80;16.90;;;;;;;8.52;58.67;100095.64;114368;1196;108559;-67
2021/10/31 01:39:55;;;;;;;27.80;17.00;;;;;;;8.50;58.67;100091.38;114205;1196;138494;-66
2021/10/31 01:43:01;;;;;;;28.80;18.40;;;;;;;8.48;58.75;100101.98;114268;1196;95947;-66
2021/10/31 01:46:15;;;;;;;25.70;16.90;;;;;;;8.46;58.66;100094.25;114498;1195;137211;-67
2021/10/31 01:49:22;;;;;;;28.40;17.90;;;;;;;8.42;58.82;100093.81;113997;1195;112508;-68
2021/10/31 01:52:33;;;;;;;29.50;17.80;;;;;;;8.40;59.04;100092.30;113116;1196;108678;-68
2021/10/31 01:55:24;;;;;;;29.20;18.10;;;;;;;8.39;59.10;100102.55;114494;1195;108939;-66
2021/10/31 01:58:15;;;;;;;26.40;17.10;;;;;;;8.34;58.99;100098.70;114472;1195;137518;-67
2021/10/31 02:01:03;;;;;;;28.70;18.30;;;;;;;8.28;59.08;100097.95;114598;1195;95852;-66
2021/10/31 02:03:53;;;;;;;31.70;17.40;;;;;;;8.22;59.34;100101.23;114440;1193;138555;-66
2021/10/31 02:06:48;;;;;;;32.20;18.20;;;;;;;8.14;59.61;100099.67;114773;1193;108611;-66
2021/10/31 02:09:36;;;;;;;28.70;16.90;;;;;;;8.07;59.65;100098.48;113199;1193;137943;-68
2021/10/31 02:12:26;;;;;;;28.60;18.10;;;;;;;8.04;59.95;100097.86;114637;1195;95856;-67
2021/10/31 02:15:18;;;;;;;26.00;17.00;;;;;;;7.99;60.18;100091.42;114607;1193;139005;-68
2021/10/31 02:18:05;;;;;;;29.20;17.90;;;;;;;7.94;60.13;100089.30;114762;1193;112145;-68
2021/10/31 02:20:56;;;;;;;28.70;18.10;;;;;;;7.87;60.42;100097.21;114675;1193;137793;-68
2021/10/31 02:23:45;;;;;;;27.90;17.20;;;;;;;7.80;60.81;100101.89;114736;1193;108817;-67
2021/10/31 02:26:35;;;;;;;28.80;17.70;;;;;;;7.77;60.91;100109.24;114623;1193;138405;-67
2021/10/31 02:29:22;;;;;;;26.10;17.60;;;;;;;7.75;60.83;100107.04;114738;1193;95924;-67
2021/10/31 02:32:08;;;;;;;29.20;18.90;;;;;;;7.72;60.77;100101.55;114620;1193;138452;-68
2021/10/31 02:34:56;;;;;;;26.70;17.50;;;;;;;7.69;60.99;100105.77;114793;1193;109001;-68
2021/10/31 02:37:42;;;;;;;;;;;;;;;7.66;60.88;100107.57;114753;1193;108772;-67
2021/10/31 02:40:31;;;;;;;26.80;17.60;;;;;;;7.62;61.08;100106.80;114634;1193;123837;-68
2021/10/31 02:43:18;;;;;;;28.80;17.60;;;;;;;7.59;61.21;100110.50;113346;1193;97534;-68
2021/10/31 02:46:05;;;;;;;29.60;17.90;;;;;;;7.58;61.61;100112.95;113335;1193;137761;-68
2021/10/31 02:48:52;;;;;;;;;;;;;;;7.55;61.44;100107.13;113451;1193;108820;-67
2021/10/31 02:52:02;;;;;;;29.90;17.80;;;;;;;7.51;61.55;100110.83;113274;1193;123886;-67
2021/10/31 02:55:06;;;;;;;27.90;17.50;;;;;;;7.46;61.97;100109.91;113372;1193;97580;-67
2021/10/31 02:58:11;;;;;;;27.90;17.70;;;;;;;7.43;61.95;100108.77;113253;1193;137950;-68
2021/10/31 03:01:35;;;;;;;26.40;17.60;;;;;;;7.43;62.05;100111.55;113837;1174;112350;31
2021/10/31 03:04:31;;;;;;;26.90;17.50;;;;;;;7.42;61.99;100111.74;114263;1195;137345;-66
2021/10/31 03:08:04;;;;;;;;;;;;;;;;;;;;;
2021/10/31 03:11:14;;;;;;;28.80;17.40;;;;;;;7.40;62.21;100116.63;114549;1195;95958;-66
2021/10/31 03:14:08;;;;;;;27.70;17.60;;;;;;;7.41;62.18;100121.98;114673;1194;95897;-66
2021/10/31 03:17:05;;;;;;;31.20;18.40;;;;;;;7.40;62.25;100122.85;114566;1195;137497;-66
2021/10/31 03:20:45;;;;;;;;;;;;;;;;;;;;;
2021/10/31 03:23:44;;;;;;;28.40;17.00;;;;;;;7.36;62.44;100122.92;114671;1195;108773;-66
2021/10/31 03:30:48;;;;;;;31.40;17.50;;;;;;;7.35;62.69;100130.39;114168;1197;96232;-66
2021/10/31 03:33:41;;;;;;;25.50;17.30;;;;;;;7.33;62.74;100133.19;114209;1198;111127;-67
2021/10/31 03:36:34;;;;;;;28.80;17.40;;;;;;;7.29;62.66;100135.18;114184;1198;107430;-67
2021/10/31 03:39:36;;;;;;;24.90;16.30;;;;;;;7.26;62.83;100128.50;114152;1196;108523;-67
2021/10/31 03:42:52;;;;;;;27.00;18.20;;;;;;;7.23;63.08;100130.46;114030;1198;139376;-67
2021/10/31 03:46:20;;;;;;;29.20;18.00;;;;;;;7.21;62.98;100131.05;114198;1198;95879;-66
2021/10/31 03:49:45;;;;;;;28.70;18.30;;;;;;;7.17;63.23;100132.84;114197;1198;111414;-66
2021/10/31 03:52:39;;;;;;;28.10;16.40;;;;;;;7.12;63.34;100130.50;114176;1198;107411;-66
2021/10/31 03:55:40;;;;;;;30.60;17.30;;;;;;;7.10;63.52;100137.99;114060;1198;138323;-66
2021/10/31 03:59:24;;;;;;;;;;;;;;;;;;;;;
2021/10/31 04:02:31;;;;;;;29.20;17.60;;;;;;;6.99;63.80;100140.61;114610;1195;95825;-67
2021/10/31 04:05:57;;;;;;;26.80;17.70;;;;;;;6.95;63.94;100140.18;114697;1195;111791;-65
2021/10/31 04:09:13;;;;;;;24.10;17.60;;;;;;;6.93;64.17;100139.70;114706;1195;108797;-66
2021/10/31 04:12:31;;;;;;;27.50;19.20;;;;;;;6.90;64.07;100139.06;114617;1194;137842;-66
2021/10/31 04:16:01;;;;;;;27.80;18.30;;;;;;;6.86;64.39;100140.88;114720;1195;95704;-66
2021/10/31 04:19:32;;;;;;;;;;;;;;;;;;;;;
2021/10/31 04:22:38;;;;;;;29.20;19.10;;;;;;;6.80;64.26;100150.30;114729;1195;112235;-66
2021/10/31 04:25:28;;;;;;;30.20;18.30;;;;;;;6.76;64.71;100152.63;114634;1195;137700;-66
2021/10/31 04:28:38;;;;;;;29.30;18.10;;;;;;;6.73;64.99;100146.12;114462;1195;110118;-66
2021/10/31 04:31:32;;;;;;;28.90;17.80;;;;;;;6.71;65.07;100148.23;114564;1195;138024;-66
2021/10/31 04:34:45;;;;;;;28.60;18.50;;;;;;;6.71;64.77;100146.34;114683;1195;95820;-66
2021/10/31 04:37:38;;;;;;;28.10;18.20;;;;;;;6.70;64.92;100139.98;114614;1195;138233;-66
2021/10/31 04:40:37;;;;;;;29.60;18.00;;;;;;;6.69;65.23;100141.20;114609;1195;108695;-66
2021/10/31 04:43:35;;;;;;;30.00;18.30;;;;;;;6.69;65.18;100144.66;114654;1195;136942;-66
2021/10/31 04:46:32;;;;;;;31.40;19.80;;;;;;;6.68;65.38;100145.88;114785;1195;95939;-66
2021/10/31 04:49:40;;;;;;;29.40;19.00;;;;;;;6.66;65.13;100145.22;114637;1195;137933;-66
2021/10/31 04:53:11;;;;;;;26.70;17.70;;;;;;;6.63;65.05;100146.46;114659;1195;112020;-66
2021/10/31 04:57:27;;;;;;;30.50;18.60;;;;;;;6.60;65.47;100145.31;114644;1195;137799;-66
2021/10/31 05:00:48;;;;;;;26.90;18.30;;;;;;;6.58;65.39;100144.83;114120;1198;137937;-66
2021/10/31 05:04:05;;;;;;;25.30;17.70;;;;;;;6.53;65.63;100141.81;114150;1198;96132;-67
2021/10/31 05:07:17;;;;;;;27.20;18.30;;;;;;;6.51;65.68;100146.52;114073;1198;139211;-66
2021/10/31 05:10:49;;;;;;;28.00;18.80;;;;;;;6.52;65.66;100155.13;114218;1198;112076;-66
2021/10/31 05:13:53;;;;;;;28.00;19.20;;;;;;;6.50;65.81;100158.27;114145;1197;138303;-67
2021/10/31 05:17:45;;;;;;;28.40;17.20;;;;;;;6.50;65.80;100154.31;114155;1198;108825;-67
2021/10/31 05:21:00;;;;;;;28.60;18.60;;;;;;;6.49;66.00;100155.19;114002;1202;96042;-66
2021/10/31 05:23:51;;;;;;;27.30;19.20;;;;;;;6.47;65.95;100154.88;114051;1201;95655;-66
2021/10/31 05:26:38;;;;;;;31.60;18.20;;;;;;;6.44;65.90;100162.52;113933;1201;137566;-66
2021/10/31 05:29:56;;;;;;;;;;;;;;;;;;;;;
2021/10/31 05:33:12;;;;;;;29.90;20.10;;;;;;;6.44;66.06;100157.84;113878;1200;137542;-67
2021/10/31 05:36:34;;;;;;;31.50;20.40;;;;;;;6.43;66.02;100160.28;114108;1199;95950;-66
2021/10/31 05:39:27;;;;;;;28.00;17.90;;;;;;;6.41;66.15;100159.63;114184;1198;95830;-66
2021/10/31 05:42:25;;;;;;;30.80;18.90;;;;;;;6.43;66.16;100156.83;114230;1197;112287;-67
2021/10/31 05:45:33;;;;;;;30.00;18.80;;;;;;;6.48;66.17;100157.11;114122;1198;137734;-67
2021/10/31 05:48:32;;;;;;;30.80;18.80;;;;;;;6.51;66.20;100153.41;114175;1198;108623;-67
2021/10/31 05:51:42;;;;;;;25.00;18.10;;;;;;;6.53;65.94;100148.38;114024;1198;137751;-66
2021/10/31 05:55:08;;;;;;;30.10;18.70;;;;;;;6.57;65.80;100149.16;114220;1198;95576;-66
2021/10/31 05:58:17;;;;;;;31.70;19.10;;;;;;;6.67;65.87;100158.33;114546;1195;112514;-67
2021/10/31 06:01:16;;;;;;;27.00;17.90;;;;;;;6.77;65.62;100160.21;114599;1195;108628;-67
2021/10/31 06:04:15;;;;;;;28.50;18.60;;;;;;;6.90;65.37;100162.23;114539;1195;138247;-67
2021/10/31 06:07:26;;;;;;;26.10;17.80;;;;;;;7.12;64.77;100164.23;114707;1194;95865;-67
2021/10/31 06:10:28;;;;;;;27.20;17.60;;;;;;;7.33;64.39;100164.33;114621;1195;137790;-66
2021/10/31 06:13:30;;;;;;;28.20;18.40;;;;;;;7.56;63.81;100162.48;114739;1194;114391;-67
2021/10/31 06:16:40;;;;;;;29.90;19.00;;;;;;;7.78;63.21;100164.06;114578;1195;137417;-67
2021/10/31 06:20:13;;;;;;;25.80;16.80;;;;;;;8.05;62.42;100163.29;114556;1196;108102;-67
2021/10/31 06:23:26;;;;;;;24.90;17.00;;;;;;;8.35;61.61;100167.79;114699;1195;95889;-67
2021/10/31 06:26:18;;;;;;;24.60;16.70;;;;;;;8.68;60.62;100168.89;114713;1187;96005;-67
2021/10/31 06:29:08;;;;;;;26.40;17.40;;;;;;;8.96;59.83;100174.91;114514;1195;137508;-67
2021/10/31 06:31:58;;;;;;;23.80;16.50;;;;;;;9.30;59.19;100180.73;114769;1195;108637;-67
2021/10/31 06:34:44;;;;;;;27.30;17.70;;;;;;;9.68;58.20;100177.91;114457;1195;138503;-67
2021/10/31 06:37:36;;;;;;;23.80;16.90;;;;;;;9.99;57.25;100177.48;114662;1195;95794;-67
2021/10/31 06:40:24;;;;;;;21.10;15.20;;;;;;;10.22;56.87;100177.66;114630;1195;138025;-67
2021/10/31 06:43:11;;;;;;;29.10;18.30;;;;;;;10.29;56.25;100172.23;114750;1194;112193;-67
2021/10/31 06:46:01;;;;;;;25.60;17.40;;;;;;;10.31;55.91;100179.30;114580;1195;138401;-67
2021/10/31 06:48:48;;;;;;;;;;;;;;;10.34;55.59;100174.52;114784;1195;108653;-67
2021/10/31 06:51:42;;;;;;;25.00;15.80;;;;;;;10.43;55.77;100175.27;114620;1195;123956;-67
2021/10/31 06:54:30;;;;;;;24.90;17.00;;;;;;;10.53;55.63;100168.14;114736;1195;95884;-67
2021/10/31 06:57:49;;;;;;;21.60;16.60;;;;;;;10.67;54.93;100175.50;113369;1195;137886;-66
2021/10/31 07:01:10;;;;;;;;;;;;;;;;;;;;;
2021/10/31 07:04:30;;;;;;;23.70;16.80;;;;;;;11.04;53.99;100174.59;113155;1195;138195;-66
2021/10/31 07:07:17;;;;;;;26.90;16.40;;;;;;;11.20;53.56;100179.08;114684;1195;96026;-67
2021/10/31 07:10:04;;;;;;;21.50;16.60;;;;;;;11.32;53.33;100180.87;114585;1195;137715;-66
2021/10/31 07:12:51;;;;;;;;;;;;;;;11.43;52.78;100187.07;114738;1195;111833;-66
2021/10/31 07:15:38;;;;;;;19.90;16.10;;;;;;;11.49;52.21;100191.91;114611;1195;124789;-66
2021/10/31 07:18:25;;;;;;;22.50;15.70;;;;;;;11.67;52.38;100189.33;114718;1195;107027;-66
2021/10/31 07:21:11;;;;;;;23.30;16.60;;;;;;;11.90;52.18;100192.14;114657;1195;138665;-66
2021/10/31 07:23:58;;;;;;;20.00;15.50;;;;;;;12.20;51.82;100188.54;114747;1195;95869;-66
2021/10/31 07:26:45;;;;;;;21.20;15.50;;;;;;;12.45;50.84;100187.88;114570;1195;138425;-66
2021/10/31 07:29:32;;;;;;;21.30;15.50;;;;;;;12.67;50.18;100191.68;114585;1195;109622;-66
2021/10/31 07:32:19;;;;;;;19.50;15.70;;;;;;;12.86;50.13;100183.89;114704;1195;108740;-66
2021/10/31 07:35:06;;;;;;;22.80;15.80;;;;;;;13.10;49.55;100193.34;114475;1195;138982;-66
2021/10/31 07:37:53;;;;;;;;;;;;;;;13.34;48.62;100192.31;114740;1195;95889;-66
2021/10/31 07:40:40;;;;;;;25.30;15.30;;;;;;;13.55;48.19;100193.10;114646;1195;123752;-66
2021/10/31 07:43:26;;;;;;;20.00;14.80;;;;;;;13.89;47.99;100186.48;114742;1194;109121;-66
2021/10/31 07:46:13;;;;;;;20.40;14.40;;;;;;;14.35;46.62;100194.78;114516;1195;137856;-66
2021/10/31 07:49:02;;;;;;;18.50;14.50;;;;;;;14.84;46.38;100192.73;114455;1195;97537;-66
2021/10/31 07:51:51;;;;;;;20.40;14.50;;;;;;;15.15;44.75;100191.49;112914;1195;138137;-66
2021/10/31 07:54:37;;;;;;;17.00;13.80;;;;;;;15.36;44.73;100190.54;114665;1195;111241;-66
2021/10/31 07:57:31;;;;;;;18.20;14.10;;;;;;;15.61;44.49;100188.87;114637;1195;137837;-66
2021/10/31 08:00:18;;;;;;;17.90;13.60;;;;;;;15.89;43.60;100193.18;114758;1195;108782;-66
2021/10/31 08:03:05;;;;;;;17.80;13.70;;;;;;;16.20;43.35;100186.00;114588;1194;138857;-66
2021/10/31 08:05:52;;;;;;;18.60;13.90;;;;;;;16.57;42.38;100182.83;114740;1195;95801;-66
2021/10/31 08:08:38;;;;;;;17.90;14.00;;;;;;;16.68;41.13;100184.30;114711;1195;111814;-66
2021/10/31 08:11:25;;;;;;;18.70;14.30;;;;;;;16.69;41.40;100181.09;114700;1195;108603;-66
2021/10/31 08:14:12;;;;;;;21.80;14.40;;;;;;;16.71;41.24;100185.54;114732;1195;108565;-66
2021/10/31 08:16:59;;;;;;;17.30;13.30;;;;;;;16.73;40.51;100187.19;114600;1195;137995;-67
2021/10/31 08:19:47;;;;;;;17.20;13.40;;;;;;;16.73;41.05;100183.66;114732;1195;95993;-66
2021/10/31 08:22:34;;;;;;;17.30;13.40;;;;;;;16.74;39.84;100187.46;114677;1195;137942;-66
2021/10/31 08:25:20;;;;;;;17.60;13.30;;;;;;;16.95;40.45;100187.96;114549;1195;107495;-66
2021/10/31 08:28:09;;;;;;;14.70;12.00;;;;;;;17.34;39.86;100187.05;114596;1195;138101;-66
2021/10/31 08:30:57;;;;;;;16.00;12.60;;;;;;;17.67;39.24;100182.02;114699;1195;95913;-66
2021/10/31 08:33:46;;;;;;;15.70;12.00;;;;;;;18.09;39.00;100180.25;114637;1195;140532;-67
2021/10/31 08:36:32;;;;;;;;;;;;;;;18.30;38.12;100183.98;114738;1195;111056;-66
2021/10/31 08:39:19;;;;;;;16.50;12.00;;;;;;;18.64;38.25;100184.95;114678;1194;124663;-66
2021/10/31 08:42:06;;;;;;;13.50;11.40;;;;;;;18.89;37.83;100178.82;114508;1195;108676;-66
2021/10/31 08:44:53;;;;;;;18.00;12.80;;;;;;;19.03;36.70;100175.26;114726;1195;96134;-66
2021/10/31 08:47:40;;;;;;;15.70;11.70;;;;;;;19.20;37.39;100172.16;114623;1195;137696;-66
2021/10/31 08:50:27;;;;;;;17.00;12.40;;;;;;;19.49;35.83;100172.71;114452;1195;112331;-66
2021/10/31 08:53:16;;;;;;;16.30;12.40;;;;;;;19.74;35.82;100172.41;114382;1195;138900;-67
2021/10/31 08:56:04;;;;;;;14.50;11.40;;;;;;;19.87;35.51;100171.46;114684;1195;108074;-66
2021/10/31 08:58:52;;;;;;;15.70;11.60;;;;;;;20.08;35.23;100175.80;114588;1195;138147;-66
2021/10/31 09:01:38;;;;;;;;;;;;;;;20.13;34.84;100171.21;114749;1195;95548;-66
2021/10/31 09:04:26;;;;;;;18.90;11.70;;;;;;;20.29;35.40;100165.73;114224;1196;123926;-66
2021/10/31 09:07:15;;;;;;;14.90;11.20;;;;;;;20.40;34.49;100166.88;114611;1187;107978;-66
2021/10/31 09:10:03;;;;;;;17.40;11.60;;;;;;;20.23;33.77;100162.14;114523;1195;138870;-66
2021/10/31 09:12:50;;;;;;;13.70;10.50;;;;;;;20.08;34.23;100160.98;114629;1195;96012;-66
2021/10/31 09:15:37;;;;;;;15.90;11.60;;;;;;;20.12;33.96;100163.85;114500;1195;138287;-66
2021/10/31 09:18:24;;;;;;;17.20;12.00;;;;;;;20.08;33.66;100161.66;114593;1195;112499;-66
2021/10/31 09:21:11;;;;;;;17.70;11.50;;;;;;;20.01;33.69;100172.91;114427;1195;107775;-66
2021/10/31 09:23:58;;;;;;;14.10;10.70;;;;;;;19.71;33.81;100159.76;114441;1195;138130;-66
2021/10/31 09:26:44;;;;;;;16.70;11.60;;;;;;;19.57;34.17;100157.56;114470;1195;95866;-67
2021/10/31 09:29:31;;;;;;;17.50;11.30;;;;;;;19.63;34.53;100152.38;114330;1195;136901;-66
2021/10/31 09:32:21;;;;;;;14.10;11.10;;;;;;;19.91;35.16;100148.61;114644;1195;112375;-66
2021/10/31 09:35:11;;;;;;;14.20;10.60;;;;;;;20.15;34.95;100145.23;114303;1195;138596;-66
2021/10/31 09:38:01;;;;;;;14.40;10.40;;;;;;;20.29;34.58;100146.02;114371;1195;108686;-66
2021/10/31 09:40:48;;;;;;;14.40;11.00;;;;;;;20.33;34.26;100150.48;114516;1195;138943;-66
2021/10/31 09:43:45;;;;;;;13.80;10.80;;;;;;;20.45;33.88;100151.30;114440;1195;97118;-66
2021/10/31 09:46:31;;;;;;;15.90;11.30;;;;;;;20.44;33.86;100142.77;114484;1195;138194;-66
2021/10/31 09:49:18;;;;;;;12.20;9.90;;;;;;;20.32;33.20;100145.44;114425;1195;107530;-66
2021/10/31 09:52:06;;;;;;;13.10;10.50;;;;;;;20.06;33.44;100139.55;114437;1195;138608;-66
2021/10/31 09:54:54;;;;;;;12.50;10.10;;;;;;;19.99;34.30;100142.18;114451;1196;96096;-66
2021/10/31 09:57:41;;;;;;;14.20;9.90;;;;;;;20.06;34.08;100137.59;114378;1195;137908;-65
2021/10/31 10:00:39;;;;;;;14.70;11.00;;;;;;;20.05;34.27;100133.49;114546;1195;112225;-65
2021/10/31 10:06:24;;;;;;;13.10;10.30;;;;;;;19.73;33.61;100138.48;114686;1195;108509;-66
2021/10/31 10:09:11;;;;;;;14.20;10.00;;;;;;;19.50;33.76;100138.63;114582;1195;95846;-66
2021/10/31 10:12:12;;;;;;;16.50;10.60;;;;;;;19.29;33.96;100138.40;114399;1195;138375;-66
2021/10/31 10:15:05;;;;;;;14.00;10.60;;;;;;;19.13;34.39;100131.38;114732;1194;111183;-65
2021/10/31 10:17:53;;;;;;;13.60;9.80;;;;;;;19.11;34.90;100127.30;114577;1194;138476;-66
2021/10/31 10:20:39;;;;;;;11.60;9.30;;;;;;;19.37;35.30;100124.91;114580;1195;108548;-66
2021/10/31 10:23:26;;;;;;;14.20;10.20;;;;;;;19.52;34.26;100130.02;114582;1195;138123;-65
2021/10/31 10:26:13;;;;;;;10.90;9.40;;;;;;;19.46;34.67;100124.48;114744;1194;95957;-65
2021/10/31 10:29:20;;;;;;;17.00;10.90;;;;;;;19.51;34.46;100127.83;114559;1195;137630;-65
2021/10/31 10:32:12;;;;;;;14.90;10.80;;;;;;;19.32;34.32;100120.88;114704;1195;108584;-66
2021/10/31 10:34:59;;;;;;;14.20;10.20;;;;;;;19.19;34.32;100126.70;114379;1195;137950;-65
2021/10/31 10:37:46;;;;;;;14.30;10.10;;;;;;;19.02;34.84;100117.85;114686;1194;95730;-65
2021/10/31 10:40:33;;;;;;;13.20;9.40;;;;;;;18.91;35.34;100118.32;114439;1187;138105;-64
2021/10/31 10:43:29;;;;;;;15.90;10.30;;;;;;;18.88;35.27;100121.81;114734;1194;112444;-65
2021/10/31 10:46:16;;;;;;;12.40;9.60;;;;;;;18.75;35.21;100113.80;114424;1186;138460;-65
2021/10/31 10:49:04;;;;;;;13.30;9.50;;;;;;;18.69;34.85;100117.14;114663;1195;108889;-65
2021/10/31 10:52:24;;;;;;;12.50;10.10;;;;;;;18.60;35.40;100114.15;114458;1195;96689;-65
2021/10/31 10:55:12;;;;;;;12.30;9.60;;;;;;;18.59;36.02;100103.72;114532;1195;95705;-65
2021/10/31 10:58:02;;;;;;;11.80;9.30;;;;;;;18.79;36.01;100101.54;114731;1194;111320;-66
2021/10/31 11:00:51;;;;;;;14.60;9.80;;;;;;;18.92;35.46;100098.64;114670;1194;137798;-66
2021/10/31 11:03:38;;;;;;;11.90;8.90;;;;;;;18.81;35.11;100098.71;113389;1195;108611;-65
2021/10/31 11:06:31;;;;;;;12.30;9.10;;;;;;;18.66;35.46;100098.10;113089;1195;138872;-65
2021/10/31 11:09:20;;;;;;;13.90;9.50;;;;;;;18.78;36.00;100094.02;113281;1194;97572;-65
2021/10/31 11:12:35;;;;;;;13.10;9.60;;;;;;;18.96;35.50;100094.29;113095;1195;137893;-65
2021/10/31 11:15:40;;;;;;;14.50;10.20;;;;;;;18.94;35.09;100091.69;113260;1195;108513;-65
2021/10/31 11:18:28;;;;;;;10.90;9.00;;;;;;;18.85;35.38;100087.85;113103;1195;138762;-65
2021/10/31 11:21:16;;;;;;;13.60;10.40;;;;;;;18.75;35.26;100091.38;113021;1195;97929;-65
2021/10/31 11:24:04;;;;;;;14.90;9.40;;;;;;;18.63;35.77;100084.39;114463;1195;138167;-67
2021/10/31 11:26:50;;;;;;;13.70;10.20;;;;;;;18.65;36.00;100079.38;114687;1194;112279;-66
2021/10/31 11:29:38;;;;;;;11.70;9.40;;;;;;;18.69;35.82;100080.66;114570;1195;139163;-66
2021/10/31 11:32:28;;;;;;;15.20;9.60;;;;;;;18.62;36.04;100074.64;114661;1195;108485;-66
2021/10/31 11:35:16;;;;;;;14.10;10.00;;;;;;;18.59;35.75;100070.05;114451;1195;139124;-66
2021/10/31 11:38:15;;;;;;;12.00;9.40;;;;;;;18.54;35.93;100074.97;114572;1195;96046;-66
2021/10/31 11:41:09;;;;;;;14.20;9.70;;;;;;;18.42;35.75;100072.24;114491;1195;138475;-66
2021/10/31 11:43:56;;;;;;;12.60;9.00;;;;;;;18.31;36.13;100068.65;114674;1195;108641;-66
2021/10/31 11:46:43;;;;;;;16.70;9.60;;;;;;;18.21;36.10;100065.60;114585;1195;138099;-65
2021/10/31 11:49:30;;;;;;;12.10;9.10;;;;;;;18.14;36.27;100056.58;114684;1195;95553;-66
2021/10/31 11:52:42;;;;;;;14.10;9.20;;;;;;;18.10;36.44;100054.85;114653;1195;95565;-66
2021/10/31 11:55:34;;;;;;;14.30;8.90;;;;;;;18.09;36.54;100048.58;114707;1195;112402;-66
2021/10/31 11:58:43;;;;;;;12.60;9.40;;;;;;;18.08;36.63;100048.66;114705;1195;108094;-66
2021/10/31 12:01:39;;;;;;;11.50;9.30;;;;;;;18.04;36.90;100047.91;114514;1194;138141;-66
2021/10/31 12:07:55;;;;;;;14.70;9.80;;;;;;;17.97;36.50;100039.07;114613;1195;95508;-66
2021/10/31 12:10:45;;;;;;;11.30;9.20;;;;;;;17.92;36.75;100046.08;114507;1195;112221;-66
2021/10/31 12:13:41;;;;;;;10.60;8.80;;;;;;;17.85;36.65;100039.86;114394;1195;138625;-66
2021/10/31 12:16:47;;;;;;;12.10;8.90;;;;;;;17.78;36.92;100035.02;114547;1195;108711;-66
2021/10/31 12:19:44;;;;;;;12.60;8.60;;;;;;;17.78;36.79;100035.05;114257;1195;139362;-66
2021/10/31 12:22:30;;;;;;;11.80;9.00;;;;;;;17.76;36.95;100023.86;114478;1195;95932;-65
2021/10/31 12:25:17;;;;;;;12.20;8.60;;;;;;;17.82;37.08;100021.92;114297;1196;138531;-66
2021/10/31 12:28:03;;;;;;;9.60;8.00;;;;;;;17.87;37.18;100018.58;114608;1195;108032;-66
2021/10/31 12:30:50;;;;;;;12.00;8.40;;;;;;;17.93;37.16;100018.36;114502;1195;137772;-66
2021/10/31 12:34:07;;;;;;;14.00;9.00;;;;;;;17.98;36.99;100019.30;114651;1195;95779;-66
2021/10/31 12:36:56;;;;;;;11.60;8.10;;;;;;;18.05;36.53;100017.39;114512;1195;137794;-66
2021/10/31 12:39:42;;;;;;;13.80;8.60;;;;;;;18.05;36.37;100018.80;114637;1195;112134;-66
2021/10/31 12:42:49;;;;;;;14.40;8.40;;;;;;;18.03;36.39;100017.02;114580;1195;137034;-66
2021/10/31 12:45:37;;;;;;;11.30;8.50;;;;;;;18.04;36.97;100010.27;114609;1195;108357;-66
2021/10/31 12:48:24;;;;;;;10.80;8.10;;;;;;;18.08;36.63;100009.41;114131;1196;139404;-66
2021/10/31 12:51:18;;;;;;;11.50;8.10;;;;;;;18.12;36.77;100006.34;114623;1195;95888;-66
2021/10/31 12:54:06;;;;;;;13.80;8.90;;;;;;;18.16;36.49;100010.73;114268;1194;138077;-66
2021/10/31 12:56:55;;;;;;;10.40;8.20;;;;;;;18.14;36.69;100002.07;114649;1195;108251;-66
2021/10/31 12:59:44;;;;;;;11.60;8.60;;;;;;;18.15;36.32;100007.09;114396;1195;138395;-65
2021/10/31 13:02:32;;;;;;;12.90;8.30;;;;;;;18.08;36.17;99997.32;114559;1195;96203;-66
2021/10/31 13:05:28;;;;;;;10.70;7.80;;;;;;;18.08;36.50;99995.55;114597;1195;95933;-66
2021/10/31 13:08:18;;;;;;;10.10;7.90;;;;;;;18.04;35.87;99993.32;114445;1195;138580;-66
2021/10/31 13:11:04;;;;;;;11.20;8.00;;;;;;;18.04;36.11;99989.99;114615;1195;108817;-66
2021/10/31 13:13:51;;;;;;;10.00;7.80;;;;;;;18.03;36.54;99982.02;114545;1195;143295;-66
2021/10/31 13:17:04;;;;;;;10.20;8.20;;;;;;;18.04;36.24;99987.35;114556;1195;95840;-66
2021/10/31 13:19:51;;;;;;;10.90;7.90;;;;;;;17.98;35.92;99987.63;114499;1195;138078;-67
2021/10/31 13:22:38;;;;;;;9.60;7.00;;;;;;;17.97;36.31;99989.41;114418;1195;112384;-66
2021/10/31 13:25:36;;;;;;;12.10;7.20;;;;;;;17.93;36.16;99987.04;114346;1195;138083;-66
2021/10/31 13:28:29;;;;;;;11.20;7.80;;;;;;;17.92;36.40;99980.98;114586;1195;108565;-66
2021/10/31 13:31:20;;;;;;;10.50;7.90;;;;;;;17.93;36.60;99982.48;114521;1195;138757;-66
2021/10/31 13:34:07;;;;;;;12.10;7.30;;;;;;;17.99;36.59;99977.66;114665;1195;96553;-66